Accueil
METAR-TAF:

METAR-TAF

Aéroports :

Base aérienne Volkel-Uden

Uden, Pays-Bas

latitude: 51-39N, longitude: 005-42E, altitude: 22 m

Observation

Le bulletin a été fait il y a 43 minutes, à 01:25 UTC
Vent 4 kt de nord
Température 3°C
Humidité 81%
Pression 1027 hPa
Visibilité 10 km ou plus
Ciel couvert à une hauteur de 11000 ft

METAR: EHVK 170125Z AUTO 36004KT 9999 OVC110 03/M00 Q1027 BLU

Heure: 04:08 (02:08 UTC)

Prévision

Le bulletin a été fait il y a 1 heure et 47 minutes, à 00:21 UTC
Prévision valable du 17 à 01 UTC au 17 à 13 UTC
Vent 6 kt de nord/nord-est
Visibilité 10 km ou plus
pas de nuages en-dessous de 1500 mètres et pas de cumulonimbus.

TAF: EHVK 170021Z 1701/1713 02006KT CAVOK

Observations et prévisions météorologiques de plus de 4000 aéroports (messages METAR et TAF).

Les stations disponibles sont représentées par des disques jaunes et rouges sur la carte.

Passer la souris dessus pour voir le nom de la station.

Cliquer dessus pour voir les observations et prévisions météorologiques.

Pour changer de carte: cliquez sur les boutons verts avec une croix noire pour zoomer, sur le bouton vert avec un tiret pour effectuer un zoom arrière, ou sur les flèches vertes pour les cartes adjacentes.


METAR-TAF: